sensor_id;sensor_type;location;lat;lon;timestamp;P1;durP1;ratioP1;P2;durP2;ratioP2
18780;SDS011;9519;51.890;8.970;2022-09-29T00:03:12;20.77;;;17.20;;
18780;SDS011;9519;51.890;8.970;2022-09-29T00:08:14;25.30;;;17.60;;
18780;SDS011;9519;51.890;8.970;2022-09-29T00:13:17;24.53;;;17.27;;
18780;SDS011;9519;51.890;8.970;2022-09-29T00:18:21;24.87;;;18.20;;
18780;SDS011;9519;51.890;8.970;2022-09-29T00:23:23;23.23;;;17.57;;
18780;SDS011;9519;51.890;8.970;2022-09-29T00:28:26;21.07;;;16.63;;
18780;SDS011;9519;51.890;8.970;2022-09-29T00:33:30;21.07;;;16.37;;
18780;SDS011;9519;51.890;8.970;2022-09-29T00:38:34;17.67;;;14.93;;
18780;SDS011;9519;51.890;8.970;2022-09-29T00:43:47;19.53;;;15.33;;
18780;SDS011;9519;51.890;8.970;2022-09-29T00:49:04;21.33;;;15.00;;
18780;SDS011;9519;51.890;8.970;2022-09-29T00:54:15;20.60;;;16.07;;
18780;SDS011;9519;51.890;8.970;2022-09-29T00:59:19;18.87;;;14.67;;
18780;SDS011;9519;51.890;8.970;2022-09-29T01:04:34;20.00;;;15.20;;
18780;SDS011;9519;51.890;8.970;2022-09-29T01:09:36;18.63;;;14.37;;
18780;SDS011;9519;51.890;8.970;2022-09-29T01:14:41;18.30;;;14.40;;
18780;SDS011;9519;51.890;8.970;2022-09-29T01:19:49;17.77;;;14.87;;
18780;SDS011;9519;51.890;8.970;2022-09-29T01:25:06;17.77;;;14.10;;
18780;SDS011;9519;51.890;8.970;2022-09-29T01:30:48;17.33;;;14.10;;
18780;SDS011;9519;51.890;8.970;2022-09-29T01:36:09;19.03;;;14.30;;
18780;SDS011;9519;51.890;8.970;2022-09-29T01:41:27;20.20;;;14.47;;
18780;SDS011;9519;51.890;8.970;2022-09-29T01:46:38;19.27;;;15.63;;
18780;SDS011;9519;51.890;8.970;2022-09-29T01:51:49;23.83;;;14.13;;
18780;SDS011;9519;51.890;8.970;2022-09-29T01:56:57;51.03;;;14.17;;
18780;SDS011;9519;51.890;8.970;2022-09-29T02:02:09;34.20;;;13.87;;
18780;SDS011;9519;51.890;8.970;2022-09-29T02:07:18;14.23;;;11.43;;
18780;SDS011;9519;51.890;8.970;2022-09-29T02:12:26;61.40;;;13.83;;
18780;SDS011;9519;51.890;8.970;2022-09-29T02:17:35;16.23;;;10.20;;
18780;SDS011;9519;51.890;8.970;2022-09-29T02:22:43;28.03;;;11.23;;
18780;SDS011;9519;51.890;8.970;2022-09-29T02:27:45;13.53;;;11.40;;
18780;SDS011;9519;51.890;8.970;2022-09-29T02:32:50;21.37;;;11.90;;
18780;SDS011;9519;51.890;8.970;2022-09-29T02:37:56;18.83;;;13.90;;
18780;SDS011;9519;51.890;8.970;2022-09-29T02:43:11;20.40;;;15.27;;
18780;SDS011;9519;51.890;8.970;2022-09-29T02:48:46;18.73;;;14.33;;
18780;SDS011;9519;51.890;8.970;2022-09-29T02:54:15;18.30;;;14.83;;
18780;SDS011;9519;51.890;8.970;2022-09-29T02:59:34;18.47;;;14.30;;
18780;SDS011;9519;51.890;8.970;2022-09-29T03:04:46;17.60;;;14.07;;
18780;SDS011;9519;51.890;8.970;2022-09-29T03:09:49;14.10;;;11.53;;
18780;SDS011;9519;51.890;8.970;2022-09-29T03:14:51;15.13;;;12.90;;
18780;SDS011;9519;51.890;8.970;2022-09-29T03:19:55;15.17;;;12.53;;
18780;SDS011;9519;51.890;8.970;2022-09-29T03:24:57;21.70;;;13.37;;
18780;SDS011;9519;51.890;8.970;2022-09-29T03:29:59;16.23;;;12.70;;
18780;SDS011;9519;51.890;8.970;2022-09-29T03:35:03;16.40;;;12.67;;
18780;SDS011;9519;51.890;8.970;2022-09-29T03:40:07;18.17;;;12.37;;
18780;SDS011;9519;51.890;8.970;2022-09-29T03:45:10;15.90;;;11.27;;
18780;SDS011;9519;51.890;8.970;2022-09-29T03:50:14;14.63;;;10.30;;
18780;SDS011;9519;51.890;8.970;2022-09-29T03:55:16;12.83;;;10.30;;
18780;SDS011;9519;51.890;8.970;2022-09-29T04:00:18;11.87;;;9.63;;
18780;SDS011;9519;51.890;8.970;2022-09-29T04:05:22;13.57;;;10.57;;
18780;SDS011;9519;51.890;8.970;2022-09-29T04:10:24;10.07;;;7.97;;
18780;SDS011;9519;51.890;8.970;2022-09-29T04:15:26;14.63;;;8.50;;
18780;SDS011;9519;51.890;8.970;2022-09-29T04:20:30;10.27;;;8.93;;
18780;SDS011;9519;51.890;8.970;2022-09-29T04:25:35;14.90;;;9.17;;
18780;SDS011;9519;51.890;8.970;2022-09-29T04:30:37;10.17;;;8.83;;
18780;SDS011;9519;51.890;8.970;2022-09-29T04:35:40;10.43;;;8.83;;
18780;SDS011;9519;51.890;8.970;2022-09-29T04:40:42;11.57;;;7.80;;
18780;SDS011;9519;51.890;8.970;2022-09-29T04:45:45;18.57;;;8.50;;
18780;SDS011;9519;51.890;8.970;2022-09-29T04:50:48;14.03;;;8.30;;
18780;SDS011;9519;51.890;8.970;2022-09-29T04:55:51;19.13;;;8.13;;
18780;SDS011;9519;51.890;8.970;2022-09-29T05:00:54;17.23;;;9.00;;
18780;SDS011;9519;51.890;8.970;2022-09-29T05:05:57;23.47;;;8.30;;
18780;SDS011;9519;51.890;8.970;2022-09-29T05:11:01;12.90;;;7.90;;
18780;SDS011;9519;51.890;8.970;2022-09-29T05:16:05;18.37;;;8.60;;
18780;SDS011;9519;51.890;8.970;2022-09-29T05:21:09;11.77;;;8.90;;
18780;SDS011;9519;51.890;8.970;2022-09-29T05:26:11;14.27;;;8.20;;
18780;SDS011;9519;51.890;8.970;2022-09-29T05:31:14;15.50;;;7.80;;
18780;SDS011;9519;51.890;8.970;2022-09-29T05:36:18;9.27;;;8.03;;
18780;SDS011;9519;51.890;8.970;2022-09-29T05:41:20;11.67;;;8.07;;
18780;SDS011;9519;51.890;8.970;2022-09-29T05:46:22;14.17;;;7.73;;
18780;SDS011;9519;51.890;8.970;2022-09-29T05:51:26;11.70;;;8.80;;
18780;SDS011;9519;51.890;8.970;2022-09-29T05:56:28;11.73;;;8.80;;
18780;SDS011;9519;51.890;8.970;2022-09-29T06:01:30;32.90;;;8.87;;
18780;SDS011;9519;51.890;8.970;2022-09-29T06:06:34;14.13;;;10.40;;
18780;SDS011;9519;51.890;8.970;2022-09-29T06:11:39;20.30;;;10.90;;
18780;SDS011;9519;51.890;8.970;2022-09-29T06:16:44;18.00;;;10.87;;
18780;SDS011;9519;51.890;8.970;2022-09-29T06:21:47;21.87;;;9.97;;
18780;SDS011;9519;51.890;8.970;2022-09-29T06:26:52;13.93;;;8.13;;
18780;SDS011;9519;51.890;8.970;2022-09-29T06:31:54;13.23;;;7.87;;
18780;SDS011;9519;51.890;8.970;2022-09-29T06:36:58;23.30;;;8.53;;
18780;SDS011;9519;51.890;8.970;2022-09-29T06:42:19;15.53;;;10.23;;
18780;SDS011;9519;51.890;8.970;2022-09-29T06:47:22;15.53;;;10.33;;
18780;SDS011;9519;51.890;8.970;2022-09-29T06:52:25;16.70;;;10.97;;
18780;SDS011;9519;51.890;8.970;2022-09-29T06:57:28;20.60;;;13.03;;
18780;SDS011;9519;51.890;8.970;2022-09-29T07:02:30;18.80;;;13.03;;
18780;SDS011;9519;51.890;8.970;2022-09-29T07:07:33;16.87;;;11.97;;
18780;SDS011;9519;51.890;8.970;2022-09-29T07:12:35;18.73;;;13.13;;
18780;SDS011;9519;51.890;8.970;2022-09-29T07:17:37;14.27;;;11.53;;
18780;SDS011;9519;51.890;8.970;2022-09-29T07:22:44;15.00;;;11.43;;
18780;SDS011;9519;51.890;8.970;2022-09-29T07:27:50;16.60;;;12.20;;
18780;SDS011;9519;51.890;8.970;2022-09-29T07:32:52;15.60;;;12.33;;
18780;SDS011;9519;51.890;8.970;2022-09-29T07:37:55;20.73;;;14.00;;
18780;SDS011;9519;51.890;8.970;2022-09-29T07:42:58;24.77;;;15.47;;
18780;SDS011;9519;51.890;8.970;2022-09-29T07:48:00;21.53;;;14.97;;
18780;SDS011;9519;51.890;8.970;2022-09-29T07:53:03;40.53;;;15.00;;
18780;SDS011;9519;51.890;8.970;2022-09-29T07:58:05;22.33;;;15.63;;
18780;SDS011;9519;51.890;8.970;2022-09-29T08:03:08;33.00;;;17.57;;
18780;SDS011;9519;51.890;8.970;2022-09-29T08:08:12;24.80;;;18.27;;
18780;SDS011;9519;51.890;8.970;2022-09-29T08:13:14;28.77;;;19.77;;
18780;SDS011;9519;51.890;8.970;2022-09-29T08:18:16;30.07;;;21.80;;
18780;SDS011;9519;51.890;8.970;2022-09-29T08:23:20;33.77;;;21.77;;
18780;SDS011;9519;51.890;8.970;2022-09-29T08:28:22;32.27;;;21.97;;
18780;SDS011;9519;51.890;8.970;2022-09-29T08:33:24;33.63;;;22.57;;
18780;SDS011;9519;51.890;8.970;2022-09-29T08:38:27;38.67;;;25.73;;
18780;SDS011;9519;51.890;8.970;2022-09-29T08:43:30;35.97;;;24.33;;
18780;SDS011;9519;51.890;8.970;2022-09-29T08:48:38;42.13;;;29.43;;
18780;SDS011;9519;51.890;8.970;2022-09-29T08:53:46;38.00;;;28.57;;
18780;SDS011;9519;51.890;8.970;2022-09-29T08:58:54;38.83;;;27.87;;
18780;SDS011;9519;51.890;8.970;2022-09-29T09:04:09;36.03;;;27.27;;
18780;SDS011;9519;51.890;8.970;2022-09-29T09:09:42;35.37;;;27.47;;
18780;SDS011;9519;51.890;8.970;2022-09-29T09:15:01;39.50;;;30.10;;
18780;SDS011;9519;51.890;8.970;2022-09-29T09:20:24;35.63;;;27.73;;
18780;SDS011;9519;51.890;8.970;2022-09-29T09:25:37;34.37;;;26.30;;
18780;SDS011;9519;51.890;8.970;2022-09-29T09:30:47;26.67;;;22.40;;
18780;SDS011;9519;51.890;8.970;2022-09-29T09:35:57;26.17;;;20.87;;
18780;SDS011;9519;51.890;8.970;2022-09-29T09:41:06;21.90;;;14.23;;
18780;SDS011;9519;51.890;8.970;2022-09-29T09:46:12;15.10;;;12.57;;
18780;SDS011;9519;51.890;8.970;2022-09-29T09:51:29;15.23;;;11.07;;
18780;SDS011;9519;51.890;8.970;2022-09-29T09:56:45;11.50;;;7.20;;
18780;SDS011;9519;51.890;8.970;2022-09-29T10:02:10;9.27;;;6.63;;
18780;SDS011;9519;51.890;8.970;2022-09-29T10:07:19;9.87;;;6.67;;
18780;SDS011;9519;51.890;8.970;2022-09-29T10:12:26;13.03;;;8.03;;
18780;SDS011;9519;51.890;8.970;2022-09-29T10:17:29;11.73;;;7.20;;
18780;SDS011;9519;51.890;8.970;2022-09-29T10:22:40;7.57;;;4.83;;
18780;SDS011;9519;51.890;8.970;2022-09-29T10:27:44;8.63;;;4.57;;
18780;SDS011;9519;51.890;8.970;2022-09-29T10:32:51;7.20;;;4.37;;
18780;SDS011;9519;51.890;8.970;2022-09-29T10:38:00;7.03;;;4.60;;
18780;SDS011;9519;51.890;8.970;2022-09-29T10:43:19;6.60;;;4.57;;
18780;SDS011;9519;51.890;8.970;2022-09-29T10:48:26;6.70;;;3.43;;
18780;SDS011;9519;51.890;8.970;2022-09-29T10:53:32;5.37;;;3.00;;
18780;SDS011;9519;51.890;8.970;2022-09-29T10:58:39;4.33;;;2.83;;
18780;SDS011;9519;51.890;8.970;2022-09-29T11:03:45;6.63;;;3.47;;
18780;SDS011;9519;51.890;8.970;2022-09-29T11:08:55;7.43;;;3.30;;
18780;SDS011;9519;51.890;8.970;2022-09-29T11:14:02;6.73;;;3.33;;
18780;SDS011;9519;51.890;8.970;2022-09-29T11:19:05;4.03;;;2.60;;
18780;SDS011;9519;51.890;8.970;2022-09-29T11:24:11;4.87;;;2.90;;
18780;SDS011;9519;51.890;8.970;2022-09-29T11:29:33;4.03;;;2.70;;
18780;SDS011;9519;51.890;8.970;2022-09-29T11:34:50;5.40;;;2.83;;
18780;SDS011;9519;51.890;8.970;2022-09-29T11:40:14;4.20;;;2.00;;
18780;SDS011;9519;51.890;8.970;2022-09-29T11:45:27;3.57;;;1.57;;
18780;SDS011;9519;51.890;8.970;2022-09-29T11:50:42;3.33;;;1.27;;
18780;SDS011;9519;51.890;8.970;2022-09-29T11:56:08;2.63;;;1.40;;
18780;SDS011;9519;51.890;8.970;2022-09-29T12:01:33;4.87;;;2.30;;
18780;SDS011;9519;51.890;8.970;2022-09-29T12:06:54;3.43;;;1.43;;
18780;SDS011;9519;51.890;8.970;2022-09-29T12:12:03;2.67;;;1.40;;
18780;SDS011;9519;51.890;8.970;2022-09-29T12:17:17;4.07;;;1.23;;
18780;SDS011;9519;51.890;8.970;2022-09-29T12:22:23;3.10;;;1.20;;
18780;SDS011;9519;51.890;8.970;2022-09-29T12:27:27;2.93;;;1.30;;
18780;SDS011;9519;51.890;8.970;2022-09-29T12:32:40;4.83;;;1.73;;
18780;SDS011;9519;51.890;8.970;2022-09-29T12:37:53;4.40;;;1.50;;
18780;SDS011;9519;51.890;8.970;2022-09-29T12:43:09;1.90;;;1.20;;
18780;SDS011;9519;51.890;8.970;2022-09-29T12:48:22;3.37;;;1.30;;
18780;SDS011;9519;51.890;8.970;2022-09-29T12:53:40;6.00;;;1.80;;
18780;SDS011;9519;51.890;8.970;2022-09-29T12:58:58;4.53;;;1.50;;
18780;SDS011;9519;51.890;8.970;2022-09-29T13:10:12;2.77;;;1.40;;
18780;SDS011;9519;51.890;8.970;2022-09-29T13:15:51;4.33;;;1.60;;
18780;SDS011;9519;51.890;8.970;2022-09-29T13:21:14;4.40;;;1.80;;
18780;SDS011;9519;51.890;8.970;2022-09-29T13:26:32;2.97;;;1.70;;
18780;SDS011;9519;51.890;8.970;2022-09-29T13:32:08;3.13;;;1.70;;
18780;SDS011;9519;51.890;8.970;2022-09-29T13:37:13;2.53;;;1.60;;
18780;SDS011;9519;51.890;8.970;2022-09-29T13:42:39;4.57;;;1.87;;
18780;SDS011;9519;51.890;8.970;2022-09-29T13:47:44;3.70;;;1.80;;
18780;SDS011;9519;51.890;8.970;2022-09-29T13:52:50;3.67;;;1.67;;
18780;SDS011;9519;51.890;8.970;2022-09-29T13:57:52;4.17;;;1.70;;
18780;SDS011;9519;51.890;8.970;2022-09-29T14:03:01;6.70;;;1.97;;
18780;SDS011;9519;51.890;8.970;2022-09-29T14:08:29;4.90;;;1.20;;
18780;SDS011;9519;51.890;8.970;2022-09-29T14:13:40;3.53;;;0.93;;
18780;SDS011;9519;51.890;8.970;2022-09-29T14:18:52;8.00;;;2.07;;
18780;SDS011;9519;51.890;8.970;2022-09-29T14:24:02;2.85;;;1.25;;
18780;SDS011;9519;51.890;8.970;2022-09-29T14:29:11;7.03;;;1.80;;
18780;SDS011;9519;51.890;8.970;2022-09-29T14:34:20;3.50;;;1.50;;
18780;SDS011;9519;51.890;8.970;2022-09-29T14:39:28;5.00;;;1.88;;
18780;SDS011;9519;51.890;8.970;2022-09-29T14:44:33;4.90;;;1.60;;
18780;SDS011;9519;51.890;8.970;2022-09-29T14:50:01;7.53;;;1.85;;
18780;SDS011;9519;51.890;8.970;2022-09-29T14:55:54;4.40;;;1.70;;
18780;SDS011;9519;51.890;8.970;2022-09-29T15:01:15;4.55;;;1.50;;
18780;SDS011;9519;51.890;8.970;2022-09-29T15:06:27;4.45;;;1.70;;
18780;SDS011;9519;51.890;8.970;2022-09-29T15:11:33;2.55;;;1.20;;
18780;SDS011;9519;51.890;8.970;2022-09-29T15:16:39;5.10;;;1.80;;
18780;SDS011;9519;51.890;8.970;2022-09-29T15:21:59;6.65;;;2.10;;
18780;SDS011;9519;51.890;8.970;2022-09-29T15:27:21;5.35;;;1.90;;
18780;SDS011;9519;51.890;8.970;2022-09-29T15:32:25;4.95;;;1.83;;
18780;SDS011;9519;51.890;8.970;2022-09-29T15:43:20;4.03;;;1.38;;
18780;SDS011;9519;51.890;8.970;2022-09-29T15:48:25;3.42;;;1.33;;
18780;SDS011;9519;51.890;8.970;2022-09-29T15:53:28;3.65;;;1.60;;
18780;SDS011;9519;51.890;8.970;2022-09-29T15:58:41;3.47;;;1.40;;
18780;SDS011;9519;51.890;8.970;2022-09-29T16:03:47;6.70;;;1.60;;
18780;SDS011;9519;51.890;8.970;2022-09-29T16:08:55;3.47;;;1.60;;
18780;SDS011;9519;51.890;8.970;2022-09-29T16:14:06;7.00;;;1.73;;
18780;SDS011;9519;51.890;8.970;2022-09-29T16:19:12;7.20;;;1.63;;
18780;SDS011;9519;51.890;8.970;2022-09-29T16:24:19;4.55;;;1.50;;
18780;SDS011;9519;51.890;8.970;2022-09-29T16:29:27;3.45;;;1.42;;
18780;SDS011;9519;51.890;8.970;2022-09-29T16:34:34;3.67;;;1.60;;
18780;SDS011;9519;51.890;8.970;2022-09-29T16:39:39;3.00;;;1.60;;
18780;SDS011;9519;51.890;8.970;2022-09-29T16:44:45;3.13;;;1.37;;
18780;SDS011;9519;51.890;8.970;2022-09-29T16:49:51;5.32;;;1.63;;
18780;SDS011;9519;51.890;8.970;2022-09-29T16:55:05;3.70;;;1.37;;
18780;SDS011;9519;51.890;8.970;2022-09-29T17:00:18;3.77;;;1.80;;
18780;SDS011;9519;51.890;8.970;2022-09-29T17:05:21;6.23;;;2.50;;
18780;SDS011;9519;51.890;8.970;2022-09-29T17:10:25;7.73;;;3.33;;
18780;SDS011;9519;51.890;8.970;2022-09-29T17:15:29;5.27;;;3.43;;
18780;SDS011;9519;51.890;8.970;2022-09-29T17:20:31;7.60;;;3.40;;
18780;SDS011;9519;51.890;8.970;2022-09-29T17:25:34;6.87;;;3.30;;
18780;SDS011;9519;51.890;8.970;2022-09-29T17:30:41;5.57;;;3.53;;
18780;SDS011;9519;51.890;8.970;2022-09-29T17:35:45;6.13;;;3.10;;
18780;SDS011;9519;51.890;8.970;2022-09-29T17:40:51;9.90;;;3.80;;
18780;SDS011;9519;51.890;8.970;2022-09-29T17:45:58;5.93;;;4.10;;
18780;SDS011;9519;51.890;8.970;2022-09-29T17:51:02;6.67;;;4.43;;
18780;SDS011;9519;51.890;8.970;2022-09-29T17:56:05;7.47;;;4.50;;
18780;SDS011;9519;51.890;8.970;2022-09-29T18:01:19;9.70;;;5.97;;
18780;SDS011;9519;51.890;8.970;2022-09-29T18:06:23;11.23;;;7.60;;
18780;SDS011;9519;51.890;8.970;2022-09-29T18:11:25;18.37;;;13.03;;
18780;SDS011;9519;51.890;8.970;2022-09-29T18:16:29;16.47;;;12.10;;
18780;SDS011;9519;51.890;8.970;2022-09-29T18:21:31;13.97;;;11.07;;
18780;SDS011;9519;51.890;8.970;2022-09-29T18:26:33;16.73;;;12.10;;
18780;SDS011;9519;51.890;8.970;2022-09-29T18:31:37;9.17;;;6.20;;
18780;SDS011;9519;51.890;8.970;2022-09-29T18:36:39;8.60;;;5.73;;
18780;SDS011;9519;51.890;8.970;2022-09-29T18:41:41;8.87;;;6.10;;
18780;SDS011;9519;51.890;8.970;2022-09-29T18:46:44;10.37;;;6.37;;
18780;SDS011;9519;51.890;8.970;2022-09-29T18:51:46;21.37;;;5.80;;
18780;SDS011;9519;51.890;8.970;2022-09-29T18:56:51;7.43;;;5.47;;
18780;SDS011;9519;51.890;8.970;2022-09-29T19:01:55;8.77;;;5.60;;
18780;SDS011;9519;51.890;8.970;2022-09-29T19:06:57;6.40;;;5.10;;
18780;SDS011;9519;51.890;8.970;2022-09-29T19:11:59;8.50;;;4.57;;
18780;SDS011;9519;51.890;8.970;2022-09-29T19:17:03;6.67;;;4.67;;
18780;SDS011;9519;51.890;8.970;2022-09-29T19:22:05;6.03;;;4.57;;
18780;SDS011;9519;51.890;8.970;2022-09-29T19:27:11;9.27;;;5.30;;
18780;SDS011;9519;51.890;8.970;2022-09-29T19:32:15;8.67;;;5.33;;
18780;SDS011;9519;51.890;8.970;2022-09-29T19:37:17;7.57;;;5.47;;
18780;SDS011;9519;51.890;8.970;2022-09-29T19:42:19;7.43;;;5.83;;
18780;SDS011;9519;51.890;8.970;2022-09-29T19:47:22;8.23;;;6.10;;
18780;SDS011;9519;51.890;8.970;2022-09-29T19:52:24;12.40;;;6.97;;
18780;SDS011;9519;51.890;8.970;2022-09-29T19:57:29;10.97;;;7.83;;
18780;SDS011;9519;51.890;8.970;2022-09-29T20:02:32;10.77;;;8.20;;
18780;SDS011;9519;51.890;8.970;2022-09-29T20:07:34;11.77;;;7.40;;
18780;SDS011;9519;51.890;8.970;2022-09-29T20:12:36;10.87;;;7.60;;
18780;SDS011;9519;51.890;8.970;2022-09-29T20:17:40;10.57;;;7.40;;
18780;SDS011;9519;51.890;8.970;2022-09-29T20:22:43;10.27;;;7.73;;
18780;SDS011;9519;51.890;8.970;2022-09-29T20:27:45;10.93;;;7.33;;
18780;SDS011;9519;51.890;8.970;2022-09-29T20:32:51;9.97;;;7.80;;
18780;SDS011;9519;51.890;8.970;2022-09-29T20:37:53;11.87;;;8.60;;
18780;SDS011;9519;51.890;8.970;2022-09-29T20:42:55;12.13;;;8.73;;
18780;SDS011;9519;51.890;8.970;2022-09-29T20:47:59;10.43;;;7.77;;
18780;SDS011;9519;51.890;8.970;2022-09-29T20:53:01;10.37;;;8.00;;
18780;SDS011;9519;51.890;8.970;2022-09-29T20:58:04;10.20;;;7.27;;
18780;SDS011;9519;51.890;8.970;2022-09-29T21:03:07;9.33;;;7.10;;
18780;SDS011;9519;51.890;8.970;2022-09-29T21:08:09;10.00;;;6.80;;
18780;SDS011;9519;51.890;8.970;2022-09-29T21:13:12;7.97;;;6.70;;
18780;SDS011;9519;51.890;8.970;2022-09-29T21:18:18;11.73;;;7.17;;
18780;SDS011;9519;51.890;8.970;2022-09-29T21:23:20;11.63;;;7.73;;
18780;SDS011;9519;51.890;8.970;2022-09-29T21:28:24;7.83;;;6.63;;
18780;SDS011;9519;51.890;8.970;2022-09-29T21:33:28;11.63;;;7.30;;
18780;SDS011;9519;51.890;8.970;2022-09-29T21:38:31;8.33;;;7.10;;
18780;SDS011;9519;51.890;8.970;2022-09-29T21:43:36;11.00;;;6.90;;
18780;SDS011;9519;51.890;8.970;2022-09-29T21:48:39;12.47;;;7.00;;
18780;SDS011;9519;51.890;8.970;2022-09-29T21:53:42;13.97;;;8.30;;
18780;SDS011;9519;51.890;8.970;2022-09-29T21:58:45;11.30;;;7.10;;
18780;SDS011;9519;51.890;8.970;2022-09-29T22:03:50;10.03;;;7.63;;
18780;SDS011;9519;51.890;8.970;2022-09-29T22:08:55;11.87;;;7.73;;
18780;SDS011;9519;51.890;8.970;2022-09-29T22:13:58;11.17;;;9.30;;
18780;SDS011;9519;51.890;8.970;2022-09-29T22:19:03;13.57;;;8.87;;
18780;SDS011;9519;51.890;8.970;2022-09-29T22:24:06;10.23;;;8.57;;
18780;SDS011;9519;51.890;8.970;2022-09-29T22:29:10;10.63;;;7.97;;
18780;SDS011;9519;51.890;8.970;2022-09-29T22:34:14;10.70;;;8.80;;
18780;SDS011;9519;51.890;8.970;2022-09-29T22:39:16;14.23;;;9.83;;
18780;SDS011;9519;51.890;8.970;2022-09-29T22:44:18;13.23;;;9.67;;
18780;SDS011;9519;51.890;8.970;2022-09-29T22:49:21;12.83;;;10.20;;
18780;SDS011;9519;51.890;8.970;2022-09-29T22:54:23;12.40;;;10.17;;
18780;SDS011;9519;51.890;8.970;2022-09-29T22:59:25;11.33;;;9.77;;
18780;SDS011;9519;51.890;8.970;2022-09-29T23:04:29;11.10;;;9.40;;
18780;SDS011;9519;51.890;8.970;2022-09-29T23:09:33;10.70;;;9.53;;
18780;SDS011;9519;51.890;8.970;2022-09-29T23:14:35;12.27;;;10.13;;
18780;SDS011;9519;51.890;8.970;2022-09-29T23:19:39;13.57;;;10.63;;
18780;SDS011;9519;51.890;8.970;2022-09-29T23:24:41;12.87;;;10.93;;
18780;SDS011;9519;51.890;8.970;2022-09-29T23:29:43;14.50;;;11.30;;
18780;SDS011;9519;51.890;8.970;2022-09-29T23:34:46;11.97;;;10.20;;
18780;SDS011;9519;51.890;8.970;2022-09-29T23:39:48;15.13;;;11.27;;
18780;SDS011;9519;51.890;8.970;2022-09-29T23:44:50;12.87;;;10.10;;
18780;SDS011;9519;51.890;8.970;2022-09-29T23:49:54;12.77;;;10.10;;
18780;SDS011;9519;51.890;8.970;2022-09-29T23:54:56;11.77;;;9.43;;
18780;SDS011;9519;51.890;8.970;2022-09-29T23:59:58;14.50;;;9.80;;
